Date,TemperatureHighF,TemperatureAvgF,TemperatureLowF,DewpointHighF,DewpointAvgF,DewpointLowF,HumidityHigh,HumidityAvg,HumidityLow,PressureMaxIn,PressureMinIn,WindSpeedMaxMPH,WindSpeedAvgMPH,GustSpeedMaxMPH,PrecipitationSumIn
2013-5-1,70.3,62.9,54.5,58.7,55.4,51.0,91,77,59,30.24,30.03,17,5,17,0.00
2013-5-2,90.9,67.4,49.5,56.8,45.6,17.7,97,59,10,30.27,30.16,28,7,28,0.00
2013-5-3,96.1,72.6,55.4,59.5,36.1,16.3,82,34,10,30.18,29.90,15,5,15,0.00
2013-5-4,72.7,62.7,52.5,59.8,54.9,43.8,94,76,59,29.98,29.88,17,5,17,0.00
2013-5-5,62.6,58.4,57.6,55.1,52.6,52.1,83,81,71,30.08,29.97,14,5,14,0.00
2013-5-6,66.6,60.7,55.9,61.8,55.7,51.6,99,84,59,30.17,30.02,13,4,13,0.19
2013-5-7,72.5,62.5,55.8,58.6,53.9,50.8,92,75,50,30.21,30.13,20,5,20,0.00
2013-5-8,71.8,61.8,54.0,58.0,54.1,48.9,93,77,50,30.25,30.20,18,6,18,0.00
2013-5-9,72.0,61.2,51.8,58.5,53.8,49.0,93,78,52,30.25,30.16,17,5,17,0.00
2013-5-10,71.1,62.0,53.6,59.9,56.3,51.3,95,83,60,30.25,30.14,20,5,20,0.00
2013-5-11,75.4,62.6,55.0,65.5,58.9,54.2,98,88,62,30.22,30.15,17,5,17,0.00
2013-5-12,75.9,65.7,55.4,64.2,59.7,55.1,99,82,61,30.20,30.05,17,4,17,0.00
2013-5-13,76.3,65.3,57.7,62.2,58.9,55.8,95,81,61,30.13,30.04,17,5,17,0.00
2013-5-14,74.3,60.9,53.4,60.6,55.2,52.1,99,83,57,30.14,30.05,21,5,21,0.00
2013-5-15,68.4,60.5,51.8,58.3,53.9,49.3,92,80,61,30.19,30.08,16,5,16,0.00
2013-5-16,69.4,60.1,51.3,58.3,54.3,49.2,94,82,65,30.14,30.03,17,4,17,0.00
2013-5-17,70.2,61.8,53.2,58.8,54.5,50.4,93,78,59,30.13,30.05,16,4,16,0.00
2013-5-18,71.4,61.2,51.8,58.9,53.2,48.7,90,76,54,30.20,30.10,17,4,17,0.00
2013-5-19,74.7,63.5,52.0,59.3,54.1,49.1,92,73,44,30.15,30.00,17,4,17,0.00
2013-5-20,72.7,64.3,53.4,61.2,56.6,50.4,91,77,49,30.10,30.00,18,5,18,0.00
2013-5-21,72.3,64.3,58.8,63.0,59.1,54.5,97,84,69,30.09,29.96,17,5,17,0.00
2013-5-22,70.5,61.7,52.0,58.4,53.2,49.1,92,75,55,30.00,29.91,19,5,19,0.00
2013-5-23,70.0,60.4,51.8,57.1,50.5,44.7,88,71,45,30.08,29.97,17,6,17,0.00
2013-5-24,73.4,60.5,50.4,56.7,51.4,45.7,92,73,47,30.15,30.05,18,6,18,0.00
2013-5-25,70.9,60.5,49.6,57.1,52.3,46.0,89,75,54,30.18,30.10,17,5,17,0.00
2013-5-26,71.8,61.5,49.5,57.1,53.2,47.2,92,75,55,30.21,30.12,16,5,16,0.00
2013-5-27,73.6,63.6,52.0,58.6,54.8,48.8,90,74,55,30.15,29.98,14,4,14,0.00
2013-5-28,76.1,66.4,55.8,60.1,56.8,52.6,90,72,52,30.01,29.86,21,5,21,0.00
2013-5-29,78.1,66.8,57.6,60.1,56.7,54.0,88,71,52,29.96,29.84,15,5,15,0.00
2013-5-30,73.8,65.0,55.0,61.0,56.0,52.3,92,73,57,30.01,29.90,14,5,14,0.00
2013-5-31,73.9,64.9,58.3,62.1,57.7,53.2,93,78,60,30.06,29.95,17,4,17,0.00